Roselawn, Ohio
Current Conditions -  °F | °C
As of 3:53 PM on Wednesday 17 Dec 2014 (Local Time) from KLUK Reporting Station
Overcast Overcast  
Wind Chill: 23°   Ceiling: 2200
Heat Index: 32°   Visibility: 10mi
Dew Point: 24°   Wind: 12mph
Humidity: 73%   Direction: 240°WSW
Pressure: 30.23"   Gusts: NA
Location:  39.1936°N, 84.4486°W
Report Text: KLUK 172053Z 24010KT 10SM OVC022 00/M04 A3023 RMK AO2 SLP240 T00001044 56006
Loading
Personal Weather Stations






























Interactive Weather Map New forecast layout! Learn more

10-Day Weather Forecast

Advertisements
Track Severe Weather on mobile